Forside
METAR-TAF:

METAR-TAF

Lufthavne :

Jonesboro, Arkansas, USA

Breddekreds: 35-50-14N, længdekreds: 090-38-35W, højde: 79 m

Aktuelle vejr

Denne rapport blev lavet for 1 time og 4 minutter siden, kl. 20:53 UTC
Vind 7 kt fra syd
Temperatur 15°C
Fugtighed 51%
Tryk 1019 hPa
Sigt: 16.1 km
skyfri

METAR: KJBR 162053Z AUTO 18007KT 10SM CLR 15/05 A3010 RMK AO2 SLP191 T01500050 56010

Tid: 15:57 (21:57 UTC)

Vejrudsigter

Denne rapport blev lavet for 4 timer og 35 minutter siden, kl. 17:22 UTC
Foreløbig gælder fra 16 på 18 UTC til 17 på 18 UTC
Vind 4 kt fra sydvest
Sigt: 10 km
Spredte skyer i en højde af 25000 ft
Fra 17 på 1600 UTC
Vind 8 kt fra sydvest
Sigt: 10 km
Nogle få skyer i en højde af 25000 ft

TAF: KJBR 161722Z 1618/1718 23004KT P6SM SCT250 FM171600 22008KT P6SM FEW250

Vejrobservationer og prognoser fra mere end 4000 lufthavne (METAR og TAF).

De gule og røde prikker repræsenterer de meteorologiske stationer.

Flyt musen over at se navnet på stationen.

Så klik over at se vejr observationer og prognoser.

At skifte det kort: Klik på de grønne knapper med et sort kors for at zoome ind; på den grønne knap med en bindestreg for at zoome ud; eller på de grønne pile for tilstødende kort.


METAR-TAF: